Time;durP1;ratioP1;P1;durP2;ratioP2;P2;SDS_P1;SDS_P2;PMS_P1;PMS_P2;Temp;Humidity;BMP_temperature;BMP_pressure;BME280_temperature;BME280_humidity;BME280_pressure;Samples;Min_cycle;Max_cycle;Signal;HPM_P1;HPM_P2
2021/07/01 00:02:15;;;;;;;0.00;0.00;;;20.30;83.80;;;;;;4208582;28;20075;-46
2021/07/01 00:04:39;;;;;;;0.00;0.00;;;20.30;83.90;;;;;;4208887;28;20067;-47
2021/07/01 00:07:02;;;;;;;1.95;0.90;;;20.30;84.00;;;;;;4208744;28;20063;-47
2021/07/01 00:09:25;;;;;;;0.55;0.55;;;20.30;84.00;;;;;;4208912;28;20040;-46
2021/07/01 00:11:49;;;;;;;0.35;0.35;;;20.30;84.00;;;;;;4208697;28;20080;-45
2021/07/01 00:14:11;;;;;;;2.63;1.77;;;20.30;84.00;;;;;;4208409;28;20052;-47
2021/07/01 00:16:33;;;;;;;0.10;0.10;;;20.30;83.90;;;;;;4208490;28;20047;-50
2021/07/01 00:18:55;;;;;;;0.00;0.00;;;20.30;84.00;;;;;;4208563;28;20058;-49
2021/07/01 00:21:19;;;;;;;0.32;0.32;;;20.30;84.00;;;;;;4208633;28;20052;-45
2021/07/01 00:23:41;;;;;;;0.00;0.00;;;20.30;84.00;;;;;;4208585;28;20417;-46
2021/07/01 00:26:03;;;;;;;0.00;0.00;;;20.30;84.00;;;;;;4207661;28;20052;-46
2021/07/01 00:28:40;;;;;;;0.00;0.00;;;20.20;83.90;;;;;;4207747;28;20059;-45
2021/07/01 00:31:02;;;;;;;0.00;0.00;;;20.20;84.80;;;;;;4204646;28;20097;-45
2021/07/01 00:33:24;;;;;;;0.55;0.45;;;20.20;84.00;;;;;;4200630;28;20481;-48
2021/07/01 00:35:47;;;;;;;0.00;0.00;;;20.20;84.00;;;;;;4207984;28;20559;-47
2021/07/01 00:38:10;;;;;;;0.00;0.00;;;20.20;84.00;;;;;;4208388;28;20096;-50
2021/07/01 00:40:32;;;;;;;0.00;0.00;;;20.20;84.10;;;;;;4208333;28;20051;-48
2021/07/01 00:42:55;;;;;;;0.00;0.00;;;20.20;84.10;;;;;;4207908;28;20055;-45
2021/07/01 00:45:17;;;;;;;0.00;0.00;;;20.20;84.10;;;;;;4207415;28;20527;-46
2021/07/01 00:47:39;;;;;;;0.32;0.32;;;20.20;84.10;;;;;;4208146;28;20052;-47
2021/07/01 00:50:06;;;;;;;0.52;0.52;;;20.20;84.10;;;;;;4208090;28;20051;-46
2021/07/01 00:52:28;;;;;;;0.00;0.00;;;20.20;84.20;;;;;;4207720;28;20048;-47
2021/07/01 00:54:52;;;;;;;0.00;0.00;;;20.20;84.20;;;;;;4207783;28;20490;-46
2021/07/01 00:57:15;;;;;;;0.00;0.00;;;20.20;84.20;;;;;;4206694;28;20509;-47
2021/07/01 00:59:38;;;;;;;0.00;0.00;;;20.20;84.30;;;;;;4208091;28;20079;-46
2021/07/01 01:02:00;;;;;;;0.00;0.00;;;20.20;84.20;;;;;;4206346;28;20047;-48
2021/07/01 01:04:22;;;;;;;0.00;0.00;;;20.20;84.20;;;;;;4205029;28;20526;-48
2021/07/01 01:06:45;;;;;;;0.10;0.10;;;20.20;84.20;;;;;;4206398;28;20043;-45
2021/07/01 01:09:09;;;;;;;0.00;0.00;;;20.20;84.20;;;;;;4206482;28;20040;-47
2021/07/01 01:11:33;;;;;;;4.47;1.02;;;20.10;84.20;;;;;;4206827;28;20562;-47
2021/07/01 01:14:00;;;;;;;0.00;0.00;;;20.20;84.20;;;;;;4206331;28;20058;-47
2021/07/01 01:16:28;;;;;;;0.10;0.10;;;20.20;84.20;;;;;;4193565;28;20062;-45
2021/07/01 01:18:51;;;;;;;0.60;0.60;;;20.20;84.20;;;;;;4206186;28;20052;-46
2021/07/01 01:21:14;;;;;;;0.13;0.13;;;20.20;84.20;;;;;;4207398;28;20050;-45
2021/07/01 01:23:38;;;;;;;0.00;0.00;;;20.10;84.10;;;;;;4203821;28;20450;-47
2021/07/01 01:26:02;;;;;;;0.05;0.05;;;20.10;84.10;;;;;;4206112;28;20052;-45
2021/07/01 01:28:37;;;;;;;2.03;0.32;;;20.10;84.20;;;;;;4205803;28;20075;-46
2021/07/01 01:30:59;;;;;;;0.00;0.00;;;20.10;85.00;;;;;;4206194;28;20453;-46
2021/07/01 01:33:22;;;;;;;0.00;0.00;;;20.10;84.20;;;;;;4206336;28;20056;-47
2021/07/01 01:35:44;;;;;;;0.20;0.20;;;20.10;84.20;;;;;;4206494;28;20048;-50
2021/07/01 01:38:09;;;;;;;0.00;0.00;;;20.10;84.20;;;;;;4207533;28;20637;-50
2021/07/01 01:40:33;;;;;;;1.52;1.20;;;20.10;84.20;;;;;;4219664;28;20594;-51
2021/07/01 01:42:55;;;;;;;0.28;0.28;;;20.20;84.20;;;;;;4207281;28;20131;-45
2021/07/01 01:45:17;;;;;;;0.25;0.10;;;20.10;84.20;;;;;;4207472;28;20075;-47
2021/07/01 01:47:46;;;;;;;1.95;1.17;;;20.10;84.10;;;;;;4210841;28;20044;-47
2021/07/01 01:50:08;;;;;;;0.00;0.00;;;20.10;84.20;;;;;;4208750;28;20052;-46
2021/07/01 01:52:47;;;;;;;0.00;0.00;;;20.10;84.20;;;;;;4210446;28;20060;-48
2021/07/01 01:55:12;;;;;;;0.00;0.00;;;20.10;84.20;;;;;;4209675;28;20519;-45
2021/07/01 01:57:36;;;;;;;0.38;0.38;;;20.10;84.20;;;;;;4209750;28;20067;-47
2021/07/01 02:00:19;;;;;;;0.00;0.00;;;20.10;84.30;;;;;;4210183;28;20052;-45
2021/07/01 02:03:02;;;;;;;0.65;0.65;;;20.10;84.20;;;;;;4210203;28;20122;-45
2021/07/01 02:05:43;;;;;;;;;;;20.10;84.30;;;;;;4210627;28;20048;-50
2021/07/01 02:08:08;;;;;;;0.00;0.00;;;20.10;84.30;;;;;;4209428;28;19957;-46
2021/07/01 02:10:33;;;;;;;0.47;0.32;;;20.10;84.30;;;;;;4209378;28;20097;-45
2021/07/01 02:12:58;;;;;;;0.03;0.03;;;20.10;84.30;;;;;;4209211;28;20040;-49
2021/07/01 02:15:22;;;;;;;0.00;0.00;;;20.10;84.30;;;;;;4208826;28;20044;-46
2021/07/01 02:17:45;;;;;;;0.47;0.47;;;20.10;84.30;;;;;;4209295;28;20048;-46
2021/07/01 02:20:11;;;;;;;0.00;0.00;;;20.10;84.30;;;;;;4210135;28;20222;-45
2021/07/01 02:22:36;;;;;;;0.00;0.00;;;20.10;84.30;;;;;;4209909;28;20265;-47
2021/07/01 02:24:59;;;;;;;0.00;0.00;;;20.00;84.30;;;;;;4210324;28;20063;-45
2021/07/01 02:27:21;;;;;;;0.00;0.00;;;20.00;84.30;;;;;;4210222;28;20050;-48
2021/07/01 02:29:45;;;;;;;0.00;0.00;;;20.00;84.30;;;;;;4208540;28;20052;-48
2021/07/01 02:32:09;;;;;;;0.00;0.00;;;20.00;84.40;;;;;;4210422;28;20052;-47
2021/07/01 02:34:39;;;;;;;0.63;0.63;;;20.00;84.30;;;;;;4208899;28;20055;-47
2021/07/01 02:37:20;;;;;;;0.00;0.00;;;20.00;84.30;;;;;;4209706;28;20059;-46
2021/07/01 02:39:52;;;;;;;1.38;1.38;;;20.00;84.30;;;;;;4207958;28;20137;-49
2021/07/01 02:42:15;;;;;;;0.00;0.00;;;20.00;84.30;;;;;;4208834;28;20055;-47
2021/07/01 02:44:38;;;;;;;0.00;0.00;;;20.00;84.30;;;;;;4208423;28;20159;-47
2021/07/01 02:47:20;;;;;;;0.43;0.43;;;20.00;84.30;;;;;;4193321;28;20486;-48
2021/07/01 02:49:43;;;;;;;0.00;0.00;;;20.00;84.30;;;;;;4191999;28;20046;-47
2021/07/01 02:52:12;;;;;;;0.05;0.05;;;20.00;84.30;;;;;;4191518;28;20059;-45
2021/07/01 02:54:35;;;;;;;0.00;0.00;;;20.00;84.40;;;;;;4191925;28;20079;-48
2021/07/01 02:57:00;;;;;;;0.00;0.00;;;20.00;85.20;;;;;;4207699;28;20141;-47
2021/07/01 02:59:22;;;;;;;0.10;0.10;;;20.00;84.40;;;;;;4209475;28;20044;-51
2021/07/01 03:02:03;;;;;;;0.00;0.00;;;20.00;84.40;;;;;;4192748;28;20131;-48
2021/07/01 03:04:34;;;;;;;0.00;0.00;;;20.00;84.40;;;;;;4191385;28;20441;-47
2021/07/01 03:06:56;;;;;;;0.00;0.00;;;20.00;84.40;;;;;;4164319;28;20451;-47
2021/07/01 03:09:19;;;;;;;0.00;0.00;;;20.00;84.50;;;;;;4192243;28;20153;-48
2021/07/01 03:11:41;;;;;;;5.78;0.45;;;20.00;84.60;;;;;;4209380;28;20425;-47
2021/07/01 03:14:04;;;;;;;0.00;0.00;;;20.00;84.60;;;;;;4193552;28;20141;-45
2021/07/01 03:16:26;;;;;;;0.05;0.05;;;20.00;84.60;;;;;;4208854;28;20051;-46
2021/07/01 03:18:49;;;;;;;5.22;2.05;;;20.00;84.60;;;;;;4192393;28;20128;-46
2021/07/01 03:21:31;;;;;;;0.00;0.00;;;20.00;84.60;;;;;;4193455;28;20127;-46
2021/07/01 03:23:56;;;;;;;0.00;0.00;;;20.00;84.60;;;;;;4209080;28;20115;-45
2021/07/01 03:26:19;;;;;;;0.00;0.00;;;19.90;84.50;;;;;;4207310;28;20051;-45
2021/07/01 03:28:41;;;;;;;0.15;0.15;;;20.00;84.60;;;;;;4209312;28;20047;-47
2021/07/01 03:31:03;;;;;;;0.38;0.38;;;20.00;85.50;;;;;;4209282;28;20040;-52
2021/07/01 03:33:26;;;;;;;0.00;0.00;;;19.90;84.60;;;;;;4207789;28;20095;-46
2021/07/01 03:35:48;;;;;;;0.00;0.00;;;20.00;84.70;;;;;;4207818;28;20121;-46
2021/07/01 03:38:30;;;;;;;0.15;0.15;;;20.00;84.60;;;;;;4208922;28;20048;-47
2021/07/01 03:41:03;;;;;;;0.03;0.03;;;20.00;85.00;;;;;;4207833;28;20513;-45
2021/07/01 03:43:27;;;;;;;0.75;0.73;;;20.00;84.70;;;;;;4207598;28;20040;-47
2021/07/01 03:45:53;;;;;;;0.00;0.00;;;20.00;84.60;;;;;;4207444;28;20842;-47
2021/07/01 03:48:16;;;;;;;0.00;0.00;;;20.00;84.70;;;;;;4222223;28;20101;-45
2021/07/01 03:50:58;;;;;;;0.00;0.00;;;20.00;84.70;;;;;;4205694;28;20051;-45
2021/07/01 03:53:33;;;;;;;0.00;0.00;;;20.00;84.70;;;;;;4206164;28;20044;-47
2021/07/01 03:55:55;;;;;;;0.00;0.00;;;19.90;84.80;;;;;;4208673;28;20047;-47
2021/07/01 03:58:17;;;;;;;0.00;0.00;;;19.90;84.80;;;;;;4207014;28;20048;-47
2021/07/01 04:00:48;;;;;;;0.85;0.55;;;19.90;84.80;;;;;;4206624;28;20048;-45
2021/07/01 04:03:11;;;;;;;0.47;0.47;;;19.90;84.80;;;;;;4208606;28;20036;-46
2021/07/01 04:05:53;;;;;;;0.20;0.20;;;19.90;84.80;;;;;;4205467;28;20059;-51
2021/07/01 04:08:16;;;;;;;0.10;0.10;;;19.90;84.80;;;;;;4206977;28;20051;-45
2021/07/01 04:10:46;;;;;;;0.40;0.40;;;19.90;84.80;;;;;;4189817;28;20052;-47
2021/07/01 04:13:10;;;;;;;0.70;0.70;;;19.90;84.80;;;;;;4191408;28;20052;-49
2021/07/01 04:15:32;;;;;;;0.10;0.10;;;19.90;84.80;;;;;;4191398;28;20127;-47
2021/07/01 04:18:15;;;;;;;0.47;0.47;;;19.90;84.90;;;;;;4207723;28;20132;-48
2021/07/01 04:20:55;;;;;;;0.00;0.00;;;19.90;84.80;;;;;;4206783;28;20044;-45
2021/07/01 04:23:36;;;;;;;0.03;0.03;;;19.90;84.80;;;;;;4200356;28;20048;-47
2021/07/01 04:26:18;;;;;;;0.05;0.05;;;19.90;84.80;;;;;;4207285;28;20138;-46
2021/07/01 04:28:41;;;;;;;0.00;0.00;;;19.90;84.80;;;;;;4206595;28;20048;-45
2021/07/01 04:31:07;;;;;;;0.03;0.03;;;19.90;84.90;;;;;;4201938;28;20063;-45
2021/07/01 04:33:50;;;;;;;0.20;0.20;;;19.90;84.90;;;;;;4205652;28;20043;-49
2021/07/01 04:36:17;;;;;;;0.20;0.20;;;19.90;84.90;;;;;;4190105;28;20510;-48
2021/07/01 04:38:40;;;;;;;0.00;0.00;;;19.90;84.80;;;;;;4192434;28;20060;-45
2021/07/01 04:41:04;;;;;;;0.32;0.32;;;19.90;84.90;;;;;;4190618;28;20043;-46
2021/07/01 04:43:28;;;;;;;0.00;0.00;;;19.90;84.90;;;;;;4192271;28;20140;-46
2021/07/01 04:45:50;;;;;;;0.10;0.10;;;19.90;84.90;;;;;;4206168;28;20411;-46
2021/07/01 04:48:12;;;;;;;1.88;1.77;;;19.90;84.90;;;;;;4208285;28;20058;-53
2021/07/01 04:50:36;;;;;;;0.75;0.75;;;19.90;84.90;;;;;;4206861;28;20538;-45
2021/07/01 04:53:17;;;;;;;0.00;0.00;;;19.90;84.90;;;;;;4207641;28;20540;-46
2021/07/01 04:55:58;;;;;;;0.00;0.00;;;19.90;85.00;;;;;;4207600;28;20048;-48
2021/07/01 04:58:41;;;;;;;0.00;0.00;;;19.90;85.00;;;;;;4177892;28;20053;-46
2021/07/01 05:01:26;;;;;;;0.70;0.70;;;19.90;85.00;;;;;;4199932;28;20048;-49
2021/07/01 05:04:08;;;;;;;0.75;0.75;;;19.90;85.00;;;;;;4208123;28;20122;-52
2021/07/01 05:06:31;;;;;;;0.00;0.00;;;19.90;85.00;;;;;;4207615;28;20143;-47
2021/07/01 05:08:53;;;;;;;11.68;1.23;;;19.90;85.10;;;;;;4221124;28;20055;-47
2021/07/01 05:11:15;;;;;;;0.57;0.45;;;19.90;85.10;;;;;;4206202;28;20048;-47
2021/07/01 05:13:37;;;;;;;0.15;0.15;;;19.90;85.00;;;;;;4207492;28;20051;-46
2021/07/01 05:16:01;;;;;;;0.13;0.13;;;19.90;85.00;;;;;;4205838;28;20093;-48
2021/07/01 05:18:24;;;;;;;0.32;0.32;;;19.90;85.00;;;;;;4190364;28;20453;-46
2021/07/01 05:21:10;;;;;;;4.10;0.75;;;19.90;85.00;;;;;;4206452;28;20519;-52
2021/07/01 05:23:48;;;;;;;0.10;0.10;;;19.90;85.10;;;;;;4207806;28;20048;-49
2021/07/01 05:26:39;;;;;;;0.70;0.70;;;19.90;86.00;;;;;;4185032;28;20102;-49
2021/07/01 05:29:20;;;;;;;0.25;0.25;;;19.90;85.30;;;;;;4190390;28;20052;-47
2021/07/01 05:32:23;;;;;;;0.00;0.00;;;19.90;85.50;;;;;;4206928;28;20052;-51
2021/07/01 05:35:08;;;;;;;1.13;1.08;;;19.90;86.20;;;;;;4191058;28;20522;-46
2021/07/01 05:37:39;;;;;;;0.38;0.10;;;20.00;86.10;;;;;;4180617;28;20061;-47
2021/07/01 05:40:01;;;;;;;1.23;1.13;;;20.00;85.80;;;;;;4171906;28;20430;-46
2021/07/01 05:42:24;;;;;;;0.90;0.90;;;20.10;85.60;;;;;;4172326;28;20056;-49
2021/07/01 05:44:48;;;;;;;0.00;0.00;;;20.10;85.50;;;;;;4210552;28;20114;-46
2021/07/01 05:47:11;;;;;;;0.22;0.22;;;20.00;85.40;;;;;;4206088;28;20040;-48
2021/07/01 05:49:35;;;;;;;0.32;0.32;;;20.00;85.30;;;;;;4206476;28;20173;-47
2021/07/01 05:52:01;;;;;;;0.10;0.10;;;20.00;85.30;;;;;;4207233;28;20410;-47
2021/07/01 05:54:27;;;;;;;0.52;0.52;;;20.00;85.30;;;;;;4196200;28;20055;-45
2021/07/01 05:56:50;;;;;;;0.10;0.10;;;20.00;85.30;;;;;;4206716;28;20044;-47
2021/07/01 05:59:12;;;;;;;0.70;0.70;;;19.90;86.20;;;;;;4200848;28;20048;-46
2021/07/01 06:01:35;;;;;;;0.20;0.20;;;20.00;85.40;;;;;;4207214;28;20051;-46
2021/07/01 06:03:57;;;;;;;0.10;0.10;;;19.90;85.30;;;;;;4207468;28;20047;-44
2021/07/01 06:06:50;;;;;;;0.93;0.93;;;19.90;85.30;;;;;;4175753;28;20049;-46
2021/07/01 06:09:22;;;;;;;0.10;0.10;;;19.90;85.30;;;;;;4190620;28;20055;-48
2021/07/01 06:11:44;;;;;;;0.43;0.43;;;19.90;85.40;;;;;;4191052;28;20056;-47
2021/07/01 06:14:06;;;;;;;3.20;0.85;;;19.90;85.40;;;;;;4192700;28;20118;-46
2021/07/01 06:16:33;;;;;;;0.00;0.00;;;19.90;85.40;;;;;;4207031;28;20052;-47
2021/07/01 06:18:55;;;;;;;0.30;0.30;;;19.90;85.40;;;;;;4207561;28;20127;-45
2021/07/01 06:21:17;;;;;;;0.00;0.00;;;19.90;85.40;;;;;;4207201;28;20079;-46
2021/07/01 06:23:41;;;;;;;0.35;0.35;;;19.90;85.40;;;;;;4202705;28;20529;-46
2021/07/01 06:26:04;;;;;;;0.05;0.05;;;19.90;85.40;;;;;;4201327;28;20043;-46
2021/07/01 06:28:27;;;;;;;0.52;0.52;;;19.90;85.40;;;;;;4197628;28;20135;-52
2021/07/01 06:30:51;;;;;;;0.13;0.13;;;19.90;85.40;;;;;;4196043;28;20051;-53
2021/07/01 06:33:14;;;;;;;0.60;0.60;;;19.90;85.40;;;;;;4207682;28;20044;-46
2021/07/01 06:35:36;;;;;;;0.68;0.68;;;19.90;85.50;;;;;;4210778;28;20655;-46
2021/07/01 06:38:10;;;;;;;0.45;0.45;;;19.90;85.40;;;;;;4196810;28;20102;-45
2021/07/01 06:40:53;;;;;;;0.22;0.22;;;19.90;85.50;;;;;;4197726;28;20049;-46
2021/07/01 06:43:34;;;;;;;0.30;0.30;;;19.90;85.60;;;;;;4202765;28;20055;-47
2021/07/01 06:46:17;;;;;;;1.20;1.13;;;19.90;85.60;;;;;;4212587;28;20044;-48
2021/07/01 06:48:59;;;;;;;0.10;0.10;;;19.90;85.60;;;;;;4214058;28;20554;-48
2021/07/01 06:51:41;;;;;;;0.25;0.22;;;19.90;85.70;;;;;;4214344;28;20454;-48
2021/07/01 06:54:24;;;;;;;0.30;0.30;;;19.90;85.70;;;;;;4213963;28;20047;-49
2021/07/01 06:57:08;;;;;;;1.48;0.80;;;19.90;85.70;;;;;;4213238;28;20123;-46
2021/07/01 06:59:30;;;;;;;0.00;0.00;;;19.90;85.70;;;;;;4213838;28;20075;-48
2021/07/01 07:01:53;;;;;;;0.60;0.60;;;19.90;85.70;;;;;;4212802;28;20052;-50
2021/07/01 07:04:17;;;;;;;0.57;0.57;;;19.90;90.50;;;;;;4213859;28;20055;-46
2021/07/01 07:06:40;;;;;;;0.93;0.93;;;20.00;91.80;;;;;;4210845;28;20044;-46
2021/07/01 07:09:04;;;;;;;1.52;0.57;;;20.00;92.00;;;;;;4212004;28;20131;-47
2021/07/01 07:11:27;;;;;;;3.17;2.17;;;20.00;91.60;;;;;;4211451;28;20143;-48
2021/07/01 07:13:50;;;;;;;1.27;1.25;;;20.00;90.90;;;;;;4206095;28;20554;-48
2021/07/01 07:16:12;;;;;;;0.63;0.40;;;20.00;90.50;;;;;;4196905;28;20045;-52
2021/07/01 07:18:37;;;;;;;0.08;0.08;;;20.00;90.30;;;;;;4208724;28;20055;-51
2021/07/01 07:21:02;;;;;;;1.83;1.55;;;20.00;90.50;;;;;;4212793;28;20052;-51
2021/07/01 07:23:30;;;;;;;0.43;0.43;;;20.00;90.10;;;;;;4213986;28;20048;-49
2021/07/01 07:25:54;;;;;;;0.40;0.40;;;20.00;90.00;;;;;;4211948;28;20391;-50
2021/07/01 07:28:19;;;;;;;4.45;1.73;;;20.10;90.30;;;;;;4197098;28;20059;-51
2021/07/01 07:30:43;;;;;;;0.00;0.00;;;20.00;90.10;;;;;;4212247;28;20478;-50
2021/07/01 07:33:07;;;;;;;2.78;1.65;;;20.10;90.00;;;;;;4205821;28;20119;-47
2021/07/01 07:35:29;;;;;;;1.08;0.90;;;20.10;90.00;;;;;;4205885;28;20059;-47
2021/07/01 07:37:52;;;;;;;1.00;1.00;;;20.10;89.90;;;;;;4201536;28;20044;-47
2021/07/01 07:40:14;;;;;;;0.75;0.75;;;20.20;90.00;;;;;;4189941;28;20056;-48
2021/07/01 07:42:37;;;;;;;0.25;0.25;;;20.20;89.70;;;;;;4192385;28;20052;-53
2021/07/01 07:45:00;;;;;;;0.00;0.00;;;20.30;90.40;;;;;;4206934;28;20082;-56
2021/07/01 07:47:24;;;;;;;1.08;1.08;;;20.40;90.60;;;;;;4208499;28;20071;-66
2021/07/01 07:49:46;;;;;;;2.65;2.08;;;20.60;90.70;;;;;;4208535;28;20066;-45
2021/07/01 07:52:09;;;;;;;0.52;0.52;;;20.70;88.80;;;;;;4208848;28;20074;-47
2021/07/01 07:54:38;;;;;;;0.10;0.10;;;20.70;87.90;;;;;;4209116;28;20058;-46
2021/07/01 07:57:02;;;;;;;0.00;0.00;;;20.70;87.50;;;;;;4191933;28;20049;-47
2021/07/01 07:59:30;;;;;;;0.20;0.20;;;20.60;87.60;;;;;;4198369;28;20055;-45
2021/07/01 08:01:52;;;;;;;2.42;1.13;;;20.60;87.60;;;;;;4209270;28;20052;-47
2021/07/01 08:04:19;;;;;;;0.17;0.17;;;20.50;87.70;;;;;;4209037;28;20052;-45
2021/07/01 08:06:43;;;;;;;1.85;1.75;;;20.40;87.70;;;;;;4208030;28;20078;-54
2021/07/01 08:09:06;;;;;;;0.13;0.13;;;20.40;87.90;;;;;;4208504;28;20494;-47
2021/07/01 08:11:28;;;;;;;0.20;0.20;;;20.40;88.00;;;;;;4208904;28;20055;-47
2021/07/01 08:13:54;;;;;;;0.35;0.35;;;20.40;88.10;;;;;;4193090;28;20048;-48
2021/07/01 08:16:16;;;;;;;4.43;1.92;;;20.30;88.00;;;;;;4207791;28;20474;-46
2021/07/01 08:18:40;;;;;;;0.10;0.10;;;20.30;88.10;;;;;;4208721;28;20059;-48
2021/07/01 08:21:05;;;;;;;0.10;0.10;;;20.30;88.10;;;;;;4207626;28;20124;-48
2021/07/01 08:23:27;;;;;;;0.52;0.52;;;20.30;88.20;;;;;;4208223;28;20063;-48
2021/07/01 08:25:49;;;;;;;0.98;0.98;;;20.30;88.10;;;;;;4208593;28;20043;-45
2021/07/01 08:28:12;;;;;;;0.50;0.50;;;20.30;88.10;;;;;;4207129;28;20059;-46
2021/07/01 08:30:34;;;;;;;0.55;0.55;;;20.20;88.00;;;;;;4207183;28;20052;-52
2021/07/01 08:32:57;;;;;;;0.70;0.70;;;20.20;88.00;;;;;;4208294;28;20504;-47
2021/07/01 08:35:22;;;;;;;0.40;0.40;;;20.30;88.10;;;;;;4207308;28;20040;-47
2021/07/01 08:37:49;;;;;;;2.92;1.55;;;20.30;88.10;;;;;;4207546;28;20048;-48
2021/07/01 08:40:14;;;;;;;7.75;0.38;;;20.20;88.00;;;;;;4191439;28;20052;-48
2021/07/01 08:42:38;;;;;;;1.27;1.25;;;20.20;88.00;;;;;;4191322;28;20064;-46
2021/07/01 08:45:05;;;;;;;0.15;0.15;;;20.20;88.00;;;;;;4206157;28;20052;-47
2021/07/01 08:47:31;;;;;;;0.25;0.25;;;20.20;88.00;;;;;;4207775;28;20494;-49
2021/07/01 08:49:56;;;;;;;0.75;0.75;;;20.20;88.00;;;;;;4208025;28;20157;-47
2021/07/01 08:52:23;;;;;;;1.75;1.65;;;20.20;88.00;;;;;;4207674;28;20068;-49
2021/07/01 08:54:48;;;;;;;0.50;0.50;;;20.30;88.00;;;;;;4207343;28;20051;-49
2021/07/01 08:57:14;;;;;;;0.43;0.43;;;20.30;88.00;;;;;;4207224;28;20490;-47
2021/07/01 08:59:40;;;;;;;0.30;0.30;;;20.20;87.80;;;;;;4206820;28;20482;-48
2021/07/01 09:02:04;;;;;;;0.63;0.63;;;20.30;88.10;;;;;;4205724;28;20055;-46
2021/07/01 09:04:30;;;;;;;1.80;1.70;;;20.30;88.50;;;;;;4205730;28;20152;-48
2021/07/01 09:07:00;;;;;;;3.55;1.58;;;20.30;88.70;;;;;;4200780;28;20048;-50
2021/07/01 09:09:28;;;;;;;2.70;2.60;;;20.30;88.40;;;;;;4208007;28;20105;-51
2021/07/01 09:11:52;;;;;;;1.02;1.00;;;20.30;88.30;;;;;;4207511;28;20312;-49
2021/07/01 09:14:16;;;;;;;26.40;2.53;;;20.30;88.20;;;;;;4203646;28;20386;-45
2021/07/01 09:16:39;;;;;;;2.47;2.28;;;20.30;88.10;;;;;;4207641;28;20484;-48
2021/07/01 09:19:02;;;;;;;1.02;1.02;;;20.40;88.20;;;;;;4192380;28;20066;-47
2021/07/01 09:21:25;;;;;;;0.95;0.95;;;20.40;88.20;;;;;;4206870;28;20048;-46
2021/07/01 09:23:48;;;;;;;0.82;0.82;;;20.40;88.30;;;;;;4207558;28;20124;-45
2021/07/01 09:26:19;;;;;;;2.70;2.15;;;20.40;88.10;;;;;;4207879;28;20068;-46
2021/07/01 09:28:42;;;;;;;2.03;1.43;;;20.40;88.30;;;;;;4207299;28;20052;-47
2021/07/01 09:31:06;;;;;;;0.82;0.82;;;20.40;88.10;;;;;;4207196;28;20282;-52
2021/07/01 09:33:28;;;;;;;0.47;0.47;;;20.40;88.30;;;;;;4191014;28;20044;-46
2021/07/01 09:35:52;;;;;;;1.30;1.30;;;20.40;88.00;;;;;;4191175;28;20106;-47
2021/07/01 09:38:16;;;;;;;0.57;0.57;;;20.40;88.00;;;;;;4196232;28;20052;-47
2021/07/01 09:40:39;;;;;;;1.73;1.65;;;20.40;87.80;;;;;;4175438;28;20091;-49
2021/07/01 09:43:04;;;;;;;3.17;1.80;;;20.40;88.10;;;;;;4191660;28;20056;-46
2021/07/01 09:45:28;;;;;;;0.80;0.80;;;20.50;88.60;;;;;;4186395;28;20074;-48
2021/07/01 09:47:54;;;;;;;0.70;0.70;;;20.50;88.90;;;;;;4194440;28;20402;-50
2021/07/01 09:50:16;;;;;;;0.73;0.73;;;20.50;88.90;;;;;;4207512;28;20074;-48
2021/07/01 09:52:42;;;;;;;2.72;0.95;;;20.50;88.60;;;;;;4207430;28;20510;-51
2021/07/01 09:55:05;;;;;;;1.73;1.63;;;20.50;89.60;;;;;;4206081;28;20048;-48
2021/07/01 09:57:30;;;;;;;1.65;1.55;;;20.60;88.60;;;;;;4207111;28;20052;-46
2021/07/01 09:59:55;;;;;;;5.47;2.10;;;20.60;88.50;;;;;;4207119;28;20059;-50
2021/07/01 10:02:21;;;;;;;1.17;0.65;;;20.60;88.40;;;;;;4204884;28;20422;-48
2021/07/01 10:04:46;;;;;;;1.08;1.05;;;20.60;88.20;;;;;;4207344;28;20119;-47
2021/07/01 10:07:10;;;;;;;1.13;1.13;;;20.60;88.30;;;;;;4208370;28;20486;-49
2021/07/01 10:09:32;;;;;;;0.45;0.45;;;20.60;88.10;;;;;;4210337;28;20051;-51
2021/07/01 10:11:55;;;;;;;1.20;1.20;;;20.60;87.90;;;;;;4210634;28;20055;-49
2021/07/01 10:14:17;;;;;;;1.15;1.15;;;20.60;87.90;;;;;;4210318;28;20176;-45
2021/07/01 10:16:39;;;;;;;1.35;1.25;;;20.60;88.00;;;;;;4210488;28;20086;-46
2021/07/01 10:19:05;;;;;;;1.15;1.15;;;20.60;88.30;;;;;;4208746;28;20048;-48
2021/07/01 10:21:29;;;;;;;3.85;2.28;;;20.60;88.40;;;;;;4210476;28;20052;-47
2021/07/01 10:24:08;;;;;;;2.58;2.47;;;20.60;88.30;;;;;;4209697;28;20501;-50
2021/07/01 10:26:39;;;;;;;0.88;0.88;;;20.60;88.20;;;;;;4208136;28;20047;-47
2021/07/01 10:29:02;;;;;;;1.85;0.98;;;20.60;88.20;;;;;;4210055;28;20055;-48
2021/07/01 10:31:24;;;;;;;0.65;0.60;;;20.70;88.20;;;;;;4210333;28;20048;-46
2021/07/01 10:33:46;;;;;;;0.22;0.22;;;20.70;88.10;;;;;;4209032;28;20058;-45
2021/07/01 10:36:17;;;;;;;0.65;0.65;;;20.70;88.20;;;;;;4209901;28;20044;-46
2021/07/01 10:38:42;;;;;;;;;;;20.70;88.10;;;;;;4210427;28;20413;-45
2021/07/01 10:41:04;;;;;;;0.38;0.38;;;20.70;88.10;;;;;;4206693;28;19923;-49
2021/07/01 10:43:40;;;;;;;0.65;0.65;;;20.70;88.10;;;;;;4209696;28;20052;-45
2021/07/01 10:46:02;;;;;;;1.05;1.05;;;20.80;88.10;;;;;;4209858;28;20101;-44
2021/07/01 10:48:26;;;;;;;0.95;0.95;;;20.80;88.00;;;;;;4210059;28;20075;-45
2021/07/01 10:50:52;;;;;;;1.17;1.08;;;20.80;87.90;;;;;;4208057;28;20109;-49
2021/07/01 10:53:37;;;;;;;0.32;0.32;;;20.80;87.80;;;;;;4209431;28;20641;-46
2021/07/01 10:56:01;;;;;;;0.65;0.65;;;20.80;87.60;;;;;;4222727;28;20433;-51
2021/07/01 10:58:25;;;;;;;2.50;2.15;;;20.90;87.70;;;;;;4193129;28;20076;-51
2021/07/01 11:01:07;;;;;;;0.25;0.25;;;20.90;87.70;;;;;;4193348;28;20845;-46
2021/07/01 11:03:46;;;;;;;0.20;0.20;;;20.90;87.60;;;;;;4201007;28;20044;-48
2021/07/01 11:06:17;;;;;;;1.25;1.25;;;20.90;87.80;;;;;;4208932;28;20136;-46
2021/07/01 11:08:55;;;;;;;1.88;1.77;;;20.90;87.80;;;;;;4209522;28;20067;-46
2021/07/01 11:11:34;;;;;;;5.97;3.22;;;20.90;87.60;;;;;;4179787;28;20049;-49
2021/07/01 11:13:58;;;;;;;2.60;1.48;;;20.90;87.60;;;;;;4199896;28;20140;-46
2021/07/01 11:16:20;;;;;;;3.20;1.15;;;21.00;88.70;;;;;;4208428;28;20059;-47
2021/07/01 11:18:44;;;;;;;1.92;1.83;;;21.00;88.20;;;;;;4208207;28;20056;-45
2021/07/01 11:21:12;;;;;;;0.68;0.68;;;21.10;88.10;;;;;;4209791;28;20051;-47
2021/07/01 11:23:34;;;;;;;2.65;2.40;;;21.20;88.40;;;;;;4208797;28;20054;-44
2021/07/01 11:25:57;;;;;;;4.07;2.95;;;21.30;89.10;;;;;;4209486;28;20040;-48
2021/07/01 11:28:26;;;;;;;1.67;1.58;;;21.30;89.00;;;;;;4208734;28;20048;-44
2021/07/01 11:30:50;;;;;;;2.63;2.42;;;21.40;88.50;;;;;;4209415;28;20391;-46
2021/07/01 11:33:14;;;;;;;2.33;2.13;;;21.40;87.90;;;;;;4208860;28;20047;-44
2021/07/01 11:35:36;;;;;;;4.10;3.83;;;21.50;87.50;;;;;;4208830;28;20044;-46
2021/07/01 11:37:59;;;;;;;5.18;4.57;;;21.50;87.40;;;;;;4208972;28;20051;-44
2021/07/01 11:40:22;;;;;;;0.85;0.85;;;21.40;87.20;;;;;;4209217;28;20415;-47
2021/07/01 11:42:46;;;;;;;6.45;3.03;;;21.50;87.10;;;;;;4209349;28;20482;-50
2021/07/01 11:45:10;;;;;;;0.60;0.60;;;21.50;86.90;;;;;;4208888;28;20077;-47
2021/07/01 11:47:34;;;;;;;2.65;2.45;;;21.50;86.90;;;;;;4209135;28;20561;-47
2021/07/01 11:49:57;;;;;;;4.35;4.13;;;21.50;86.70;;;;;;4209271;28;20052;-50
2021/07/01 11:52:19;;;;;;;0.45;0.45;;;21.50;86.70;;;;;;4208720;28;20135;-48
2021/07/01 11:54:42;;;;;;;0.35;0.35;;;21.50;86.70;;;;;;4191494;28;20087;-47
2021/07/01 11:57:05;;;;;;;2.05;1.85;;;21.60;86.80;;;;;;4191424;28;20076;-46
2021/07/01 11:59:30;;;;;;;5.43;3.03;;;21.60;86.60;;;;;;4182060;28;20052;-49
2021/07/01 12:01:52;;;;;;;1.60;1.50;;;21.60;86.30;;;;;;4188911;28;20044;-46
2021/07/01 12:04:17;;;;;;;5.55;2.20;;;21.60;86.00;;;;;;4204562;28;20491;-44
2021/07/01 12:06:45;;;;;;;2.10;2.00;;;21.70;85.80;;;;;;4208822;28;20147;-44
2021/07/01 12:09:11;;;;;;;1.77;1.67;;;21.70;85.70;;;;;;4192318;28;20128;-46
2021/07/01 12:11:53;;;;;;;0.70;0.70;;;21.80;85.60;;;;;;4202146;28;20071;-46
2021/07/01 12:16:43;;;;;;;0.80;0.77;;;21.80;85.60;;;;;;4171955;27;1511325;-47
2021/07/01 12:19:06;;;;;;;2.60;2.50;;;21.80;85.50;;;;;;4222675;27;20282;-46
2021/07/01 12:21:29;;;;;;;1.17;1.17;;;21.80;85.60;;;;;;4216216;27;20040;-47
2021/07/01 12:23:53;;;;;;;2.65;1.60;;;21.80;85.60;;;;;;4206034;28;20044;-45
2021/07/01 12:26:36;;;;;;;1.02;1.02;;;21.80;85.40;;;;;;4205837;28;20703;-46
2021/07/01 12:28:59;;;;;;;4.13;1.08;;;21.80;85.40;;;;;;4220769;28;20048;-47
2021/07/01 12:31:23;;;;;;;1.42;1.42;;;21.80;85.50;;;;;;4222550;28;20067;-46
2021/07/01 12:33:51;;;;;;;1.05;1.05;;;21.80;85.50;;;;;;4222226;28;20474;-47
2021/07/01 12:36:22;;;;;;;0.85;0.85;;;21.80;85.40;;;;;;4220452;28;20048;-46
2021/07/01 12:39:29;;;;;;;0.82;0.82;;;21.90;85.60;;;;;;4222521;28;20065;-53
2021/07/01 12:41:55;;;;;;;1.02;0.90;;;21.80;85.60;;;;;;4205731;28;20040;-48
2021/07/01 12:44:19;;;;;;;0.75;0.75;;;21.80;85.70;;;;;;4205219;28;20136;-45
2021/07/01 12:47:11;;;;;;;1.98;1.88;;;21.80;85.60;;;;;;4206935;27;20117;-48
2021/07/01 12:49:56;;;;;;;0.35;0.35;;;21.90;85.50;;;;;;4221921;28;20051;-47